createdAt,value
2022-11-25T00:01:38.184Z,76.80
2022-11-25T00:04:04.826Z,77.00
2022-11-25T00:06:32.842Z,76.40
2022-11-25T00:09:00.642Z,76.80
2022-11-25T00:11:27.708Z,76.00
2022-11-25T00:13:55.214Z,76.20
2022-11-25T00:16:22.712Z,76.40
2022-11-25T00:18:50.424Z,77.10
2022-11-25T00:21:18.139Z,76.90
2022-11-25T00:23:45.275Z,76.60
2022-11-25T00:26:13.131Z,76.40
2022-11-25T00:28:40.584Z,73.60
2022-11-25T00:31:10.120Z,74.20
2022-11-25T00:33:36.852Z,76.00
2022-11-25T00:36:07.197Z,77.20
2022-11-25T00:38:33.916Z,77.30
2022-11-25T00:41:19.320Z,76.30
2022-11-25T00:44:04.455Z,76.30
2022-11-25T00:46:31.119Z,77.20
2022-11-25T00:48:57.723Z,76.80
2022-11-25T00:51:24.738Z,77.10
2022-11-25T00:53:55.979Z,76.80
2022-11-25T00:56:25.286Z,77.30
2022-11-25T00:58:52.925Z,77.20
2022-11-25T01:01:19.745Z,77.70
2022-11-25T01:03:48.857Z,77.20
2022-11-25T01:06:15.476Z,77.10
2022-11-25T01:08:42.069Z,76.90
2022-11-25T01:11:10.791Z,76.90
2022-11-25T01:13:39.751Z,77.90
2022-11-25T01:16:07.641Z,77.10
2022-11-25T01:18:34.604Z,77.70
2022-11-25T01:21:08.497Z,77.80
2022-11-25T01:23:35.183Z,77.10
2022-11-25T01:26:05.731Z,77.60
2022-11-25T01:28:32.663Z,77.30
2022-11-25T01:31:00.261Z,77.60
2022-11-25T01:33:26.900Z,77.50
2022-11-25T01:35:53.498Z,77.10
2022-11-25T01:38:21.962Z,76.90
2022-11-25T01:40:48.609Z,77.80
2022-11-25T01:43:15.298Z,77.20
2022-11-25T01:45:42.313Z,77.80
2022-11-25T01:48:14.944Z,78.00
2022-11-25T01:50:42.236Z,78.20
2022-11-25T01:53:10.593Z,77.20
2022-11-25T01:55:39.088Z,76.40
2022-11-25T01:58:08.408Z,76.30
2022-11-25T02:00:35.335Z,76.30
2022-11-25T02:03:04.442Z,77.10
2022-11-25T02:05:37.466Z,77.20
2022-11-25T02:08:04.514Z,77.30
2022-11-25T02:10:32.375Z,77.80
2022-11-25T02:12:59.483Z,77.70
2022-11-25T02:15:26.603Z,77.50
2022-11-25T02:17:53.246Z,77.90
2022-11-25T02:20:22.311Z,78.10
2022-11-25T02:22:57.006Z,77.70
2022-11-25T02:25:25.041Z,78.10
2022-11-25T02:27:54.830Z,78.40
2022-11-25T02:30:21.538Z,78.40
2022-11-25T02:32:49.591Z,78.70
2022-11-25T02:35:27.691Z,78.50
2022-11-25T02:37:56.632Z,78.70
2022-11-25T02:40:23.615Z,78.80
2022-11-25T02:42:50.287Z,78.90
2022-11-25T02:45:17.859Z,78.70
2022-11-25T02:47:44.451Z,76.90
2022-11-25T02:50:13.599Z,77.70
2022-11-25T02:52:40.271Z,78.70
2022-11-25T02:55:07.095Z,78.50
2022-11-25T02:57:33.724Z,78.80
2022-11-25T03:00:00.381Z,78.30
2022-11-25T03:02:27.260Z,79.80
2022-11-25T03:04:53.908Z,79.70
2022-11-25T03:07:20.564Z,78.80
2022-11-25T03:09:47.651Z,79.10
2022-11-25T03:12:20.482Z,79.00
2022-11-25T03:14:47.988Z,79.70
2022-11-25T03:17:14.627Z,79.50
2022-11-25T03:19:41.283Z,80.40
2022-11-25T03:22:07.890Z,79.50
2022-11-25T03:24:34.880Z,79.00
2022-11-25T03:27:01.651Z,78.90
2022-11-25T03:29:28.527Z,79.00
2022-11-25T03:31:55.508Z,78.70
2022-11-25T03:34:22.683Z,78.70
2022-11-25T03:36:49.604Z,78.80
2022-11-25T03:39:16.357Z,78.90
2022-11-25T03:41:43.128Z,79.20
2022-11-25T03:44:09.800Z,78.90
2022-11-25T03:46:36.579Z,78.70
2022-11-25T03:49:05.288Z,78.40
2022-11-25T03:51:31.919Z,79.60
2022-11-25T03:53:59.591Z,80.00
2022-11-25T03:56:26.558Z,79.80
2022-11-25T03:58:53.213Z,79.70
2022-11-25T04:01:20.314Z,79.70
2022-11-25T04:03:47.039Z,79.50
2022-11-25T04:06:13.704Z,79.50
2022-11-25T04:08:40.386Z,80.00
2022-11-25T04:11:08.071Z,80.00
2022-11-25T04:13:39.799Z,79.40
2022-11-25T04:16:07.224Z,79.60
2022-11-25T04:18:33.830Z,79.80
2022-11-25T04:21:00.467Z,80.60
2022-11-25T04:23:27.669Z,80.20
2022-11-25T04:25:59.576Z,81.00
2022-11-25T04:28:33.240Z,80.10
2022-11-25T04:30:59.915Z,79.40
2022-11-25T04:33:27.470Z,79.40
2022-11-25T04:35:54.184Z,80.20
2022-11-25T04:38:20.891Z,80.10
2022-11-25T04:40:48.390Z,78.70
2022-11-25T04:43:20.732Z,79.40
2022-11-25T04:46:13.614Z,79.40
2022-11-25T04:48:42.406Z,79.80
2022-11-25T04:51:09.478Z,80.50
2022-11-25T04:53:36.223Z,80.40
2022-11-25T04:56:02.956Z,79.60
2022-11-25T04:58:53.726Z,79.80
2022-11-25T05:01:20.582Z,80.00
2022-11-25T05:03:56.001Z,79.80
2022-11-25T05:06:25.071Z,79.50
2022-11-25T05:08:51.937Z,79.40
2022-11-25T05:11:19.850Z,80.50
2022-11-25T05:13:46.731Z,79.90
2022-11-25T05:16:13.734Z,80.10
2022-11-25T05:18:40.495Z,79.90
2022-11-25T05:21:07.812Z,80.10
2022-11-25T05:23:39.854Z,80.10
2022-11-25T05:26:06.684Z,79.80
2022-11-25T05:28:40.084Z,78.90
2022-11-25T05:31:06.840Z,78.50
2022-11-25T05:33:33.723Z,78.60
2022-11-25T05:36:01.197Z,78.20
2022-11-25T05:38:34.687Z,80.30
2022-11-25T05:41:02.672Z,80.50
2022-11-25T05:43:29.955Z,79.40
2022-11-25T05:45:57.783Z,79.40
2022-11-25T05:48:25.033Z,80.90
2022-11-25T05:50:52.098Z,80.40
2022-11-25T05:53:22.482Z,79.00
2022-11-25T05:55:56.395Z,79.20
2022-11-25T05:58:42.860Z,79.90
2022-11-25T06:01:10.891Z,79.90
2022-11-25T06:03:38.063Z,80.10
2022-11-25T06:06:05.586Z,79.90
2022-11-25T06:08:32.317Z,80.20
2022-11-25T06:10:59.257Z,79.80
2022-11-25T06:13:26.245Z,79.30
2022-11-25T06:15:53.142Z,79.40
2022-11-25T06:18:19.961Z,79.10
2022-11-25T06:20:58.427Z,79.60
2022-11-25T06:23:25.848Z,79.80
2022-11-25T06:25:52.515Z,79.00
2022-11-25T06:28:19.202Z,80.30
2022-11-25T06:30:49.125Z,80.30
2022-11-25T06:33:32.616Z,79.90
2022-11-25T06:36:02.944Z,79.30
2022-11-25T06:38:29.567Z,78.60
2022-11-25T06:41:00.457Z,78.40
2022-11-25T06:43:27.208Z,78.10
2022-11-25T06:45:54.120Z,78.90
2022-11-25T06:48:20.758Z,79.00
2022-11-25T06:50:55.149Z,78.50
2022-11-25T06:53:24.257Z,79.20
2022-11-25T06:56:01.413Z,79.30
2022-11-25T06:58:35.873Z,80.10
2022-11-25T07:01:07.209Z,79.80
2022-11-25T07:03:34.587Z,79.40
2022-11-25T07:06:01.174Z,79.20
2022-11-25T07:08:33.574Z,79.10
2022-11-25T07:11:05.360Z,78.60
2022-11-25T07:13:32.055Z,78.70
2022-11-25T07:16:02.947Z,78.80
2022-11-25T07:18:30.668Z,78.60
2022-11-25T07:21:01.263Z,78.90
2022-11-25T07:23:27.870Z,79.60
2022-11-25T07:25:54.525Z,79.70
2022-11-25T07:28:21.164Z,79.80
2022-11-25T07:31:22.754Z,79.40
2022-11-25T07:33:34.801Z,79.10
2022-11-25T07:36:05.213Z,79.20
2022-11-25T07:38:32.082Z,79.10
2022-11-25T07:41:09.131Z,79.00
2022-11-25T07:43:35.852Z,79.20
2022-11-25T07:46:13.204Z,78.80
2022-11-25T07:48:40.518Z,79.20
2022-11-25T07:51:24.091Z,79.40
2022-11-25T07:53:51.168Z,79.50
2022-11-25T07:56:17.864Z,79.70
2022-11-25T07:58:46.208Z,80.70
2022-11-25T08:01:13.931Z,80.90
2022-11-25T08:03:41.172Z,80.60
2022-11-25T08:06:08.952Z,80.90
2022-11-25T08:08:36.496Z,80.60
2022-11-25T08:11:06.781Z,79.50
2022-11-25T08:13:33.535Z,79.50
2022-11-25T08:16:00.905Z,79.90
2022-11-25T08:18:28.048Z,80.50
2022-11-25T08:21:01.384Z,79.80
2022-11-25T08:23:28.013Z,80.10
2022-11-25T08:25:54.656Z,79.70
2022-11-25T08:28:21.336Z,79.70
2022-11-25T08:30:48.017Z,80.10
2022-11-25T08:33:14.704Z,80.70
2022-11-25T08:35:52.482Z,80.60
2022-11-25T08:38:19.092Z,80.90
2022-11-25T08:40:46.681Z,81.30
2022-11-25T08:43:13.365Z,81.30
2022-11-25T08:45:40.383Z,80.90
2022-11-25T08:48:07.107Z,81.40
2022-11-25T08:50:33.857Z,81.10
2022-11-25T08:53:01.607Z,80.90
2022-11-25T08:55:28.913Z,80.60
2022-11-25T08:57:55.566Z,80.60
2022-11-25T09:00:22.374Z,80.80
2022-11-25T09:02:49.830Z,81.20
2022-11-25T09:05:16.976Z,80.90
2022-11-25T09:07:43.609Z,80.80
2022-11-25T09:10:13.304Z,80.20
2022-11-25T09:12:39.916Z,79.80
2022-11-25T09:15:06.864Z,79.80
2022-11-25T09:17:37.167Z,79.70
2022-11-25T09:20:05.193Z,79.20
2022-11-25T09:22:32.541Z,78.60
2022-11-25T09:24:59.177Z,78.30
2022-11-25T09:27:25.787Z,77.90
2022-11-25T09:29:52.419Z,77.00
2022-11-25T09:32:19.035Z,76.50
2022-11-25T09:34:45.643Z,75.80
2022-11-25T09:37:12.280Z,75.20
2022-11-25T09:39:39.172Z,74.90
2022-11-25T09:42:33.842Z,74.20
2022-11-25T09:45:37.819Z,74.70
2022-11-25T09:48:07.354Z,72.80
2022-11-25T09:50:58.371Z,68.00
2022-11-25T09:53:34.095Z,66.80
2022-11-25T09:56:04.653Z,66.00
2022-11-25T09:58:36.739Z,64.60
2022-11-25T10:01:12.117Z,64.50
2022-11-25T10:03:47.199Z,63.90
2022-11-25T10:06:16.170Z,61.80
2022-11-25T10:08:45.070Z,62.00
2022-11-25T10:11:18.659Z,61.90
2022-11-25T10:14:03.809Z,60.60
2022-11-25T10:16:33.315Z,61.60
2022-11-25T10:19:01.521Z,60.90
2022-11-25T10:21:28.291Z,61.50
2022-11-25T10:23:55.111Z,62.30
2022-11-25T10:26:26.623Z,61.10
2022-11-25T10:29:18.202Z,60.00
2022-11-25T10:31:44.941Z,60.30
2022-11-25T10:34:16.151Z,59.20
2022-11-25T10:36:44.051Z,59.50
2022-11-25T10:39:10.639Z,58.60
2022-11-25T10:41:42.876Z,58.60
2022-11-25T10:44:19.794Z,58.50
2022-11-25T10:47:14.888Z,59.40
2022-11-25T10:49:50.815Z,58.40
2022-11-25T10:52:20.543Z,58.20
2022-11-25T10:55:07.677Z,58.60
2022-11-25T10:57:34.468Z,58.70
2022-11-25T11:00:01.356Z,60.00
2022-11-25T11:02:29.161Z,58.80
2022-11-25T11:04:57.455Z,58.40
2022-11-25T11:07:25.379Z,58.50
2022-11-25T11:09:52.238Z,58.60
2022-11-25T11:12:23.627Z,58.10
2022-11-25T11:14:50.773Z,59.20
2022-11-25T11:17:36.046Z,59.10
2022-11-25T11:20:24.178Z,58.00
2022-11-25T11:22:56.939Z,58.20
2022-11-25T11:25:27.536Z,58.00
2022-11-25T11:27:54.665Z,57.50
2022-11-25T11:30:23.811Z,57.10
2022-11-25T11:33:07.122Z,56.50
2022-11-25T11:35:57.059Z,56.20
2022-11-25T11:38:41.400Z,57.10
2022-11-25T11:41:19.610Z,56.60
2022-11-25T11:43:59.843Z,56.60
2022-11-25T11:46:26.516Z,57.30
2022-11-25T11:49:09.143Z,57.90
2022-11-25T11:51:38.809Z,57.60
2022-11-25T11:54:07.991Z,58.20
2022-11-25T11:56:38.071Z,58.00
2022-11-25T11:59:07.764Z,58.50
2022-11-25T12:01:48.458Z,59.00
2022-11-25T12:04:18.854Z,58.50
2022-11-25T12:06:48.383Z,59.20
2022-11-25T12:09:20.399Z,59.20
2022-11-25T12:11:50.959Z,59.30
2022-11-25T12:14:17.586Z,60.00
2022-11-25T12:16:53.026Z,60.10
2022-11-25T12:19:27.295Z,59.90
2022-11-25T12:22:02.250Z,60.60
2022-11-25T12:24:40.891Z,60.60
2022-11-25T12:27:29.164Z,60.90
2022-11-25T12:30:00.550Z,60.70
2022-11-25T12:32:45.963Z,61.00
2022-11-25T12:35:19.019Z,61.30
2022-11-25T12:37:47.809Z,61.80
2022-11-25T12:40:16.342Z,62.30
2022-11-25T12:42:43.128Z,62.00
2022-11-25T12:45:21.806Z,62.20
2022-11-25T12:47:48.502Z,62.00
2022-11-25T12:50:21.986Z,62.20
2022-11-25T12:53:00.579Z,62.20
2022-11-25T12:55:27.960Z,62.30
2022-11-25T12:58:13.452Z,63.20
2022-11-25T13:01:01.995Z,63.50
2022-11-25T13:03:44.457Z,63.80
2022-11-25T13:06:34.703Z,64.20
2022-11-25T13:09:10.582Z,65.00
2022-11-25T13:11:40.401Z,66.10
2022-11-25T13:14:26.270Z,66.30
2022-11-25T13:16:54.146Z,67.00
2022-11-25T13:19:21.215Z,68.00
2022-11-25T13:22:01.324Z,68.90
2022-11-25T13:24:29.667Z,69.60
2022-11-25T13:26:56.353Z,69.50
2022-11-25T13:29:26.066Z,70.20
2022-11-25T13:32:03.731Z,70.70
2022-11-25T13:34:31.306Z,71.30
2022-11-25T13:36:58.697Z,69.90
2022-11-25T13:39:36.013Z,69.50
2022-11-25T13:42:05.068Z,70.60
2022-11-25T13:44:35.946Z,70.40
2022-11-25T13:47:21.614Z,69.80
2022-11-25T13:49:52.882Z,70.80
2022-11-25T13:52:28.829Z,69.70
2022-11-25T13:54:56.292Z,69.80
2022-11-25T13:57:26.028Z,66.00
2022-11-25T13:59:54.624Z,65.60
2022-11-25T14:02:27.488Z,66.20
2022-11-25T14:04:59.725Z,66.30
2022-11-25T14:07:41.711Z,66.50
2022-11-25T14:10:11.334Z,66.90
2022-11-25T14:12:43.286Z,67.20
2022-11-25T14:15:25.994Z,67.80
2022-11-25T14:18:04.526Z,68.30
2022-11-25T14:20:43.096Z,69.20
2022-11-25T14:23:45.109Z,69.70
2022-11-25T14:26:42.075Z,70.80
2022-11-25T14:29:15.586Z,71.20
2022-11-25T14:31:45.414Z,71.80
2022-11-25T14:34:28.811Z,72.20
2022-11-25T14:36:59.241Z,72.30
2022-11-25T14:39:30.221Z,72.60
2022-11-25T14:42:05.660Z,72.80
2022-11-25T14:44:36.356Z,74.00
2022-11-25T14:47:04.332Z,74.50
2022-11-25T14:50:05.727Z,74.30
2022-11-25T14:52:40.473Z,74.40
2022-11-25T14:55:07.279Z,74.80
2022-11-25T14:57:35.815Z,75.00
2022-11-25T15:00:05.355Z,75.50
2022-11-25T15:02:34.456Z,75.90
2022-11-25T15:05:10.248Z,76.20
2022-11-25T15:07:40.930Z,76.00
2022-11-25T15:10:27.743Z,76.80
2022-11-25T15:12:54.472Z,77.60
2022-11-25T15:15:21.093Z,78.50
2022-11-25T15:17:47.752Z,79.60
2022-11-25T15:20:17.574Z,80.60
2022-11-25T15:22:49.126Z,81.30
2022-11-25T15:25:16.001Z,82.00
2022-11-25T15:27:46.636Z,82.10
2022-11-25T15:30:19.596Z,82.60
2022-11-25T15:32:46.536Z,83.20
2022-11-25T15:35:21.300Z,83.20
2022-11-25T15:37:48.519Z,83.60
2022-11-25T15:40:29.942Z,83.60
2022-11-25T15:43:00.608Z,83.80
2022-11-25T15:45:29.404Z,84.50
2022-11-25T15:47:56.928Z,84.40
2022-11-25T15:50:25.475Z,84.40
2022-11-25T15:52:56.959Z,84.50
2022-11-25T15:55:26.381Z,84.80
2022-11-25T15:57:53.554Z,85.50
2022-11-25T16:00:21.530Z,85.80
2022-11-25T16:02:58.193Z,85.40
2022-11-25T16:05:26.739Z,85.20
2022-11-25T16:07:53.375Z,85.60
2022-11-25T16:10:22.083Z,85.40
2022-11-25T16:13:07.389Z,85.70
2022-11-25T16:15:45.882Z,85.60
2022-11-25T16:18:32.847Z,85.50
2022-11-25T16:21:02.591Z,85.70
2022-11-25T16:23:29.371Z,85.70
2022-11-25T16:25:58.208Z,85.90
2022-11-25T16:28:25.225Z,86.20
2022-11-25T16:30:57.741Z,86.30
2022-11-25T16:33:25.950Z,86.50
2022-11-25T16:35:52.613Z,86.80
2022-11-25T16:38:19.217Z,87.10
2022-11-25T16:40:46.730Z,87.40
2022-11-25T16:43:18.843Z,87.50
2022-11-25T16:45:48.425Z,87.40
2022-11-25T16:48:19.259Z,87.80
2022-11-25T16:50:46.170Z,88.00
2022-11-25T16:53:12.819Z,88.00
2022-11-25T16:55:40.783Z,88.20
2022-11-25T16:58:11.326Z,88.20
2022-11-25T17:00:37.961Z,88.30
2022-11-25T17:03:05.532Z,88.60
2022-11-25T17:05:32.204Z,88.30
2022-11-25T17:07:58.824Z,87.90
2022-11-25T17:10:26.355Z,87.80
2022-11-25T17:12:52.976Z,87.80
2022-11-25T17:15:21.247Z,87.60
2022-11-25T17:17:48.545Z,87.70
2022-11-25T17:20:17.205Z,88.20
2022-11-25T17:22:43.836Z,88.50
2022-11-25T17:25:13.796Z,89.00
2022-11-25T17:27:40.874Z,89.30
2022-11-25T17:30:12.880Z,89.50
2022-11-25T17:32:39.523Z,89.40
2022-11-25T17:35:15.518Z,89.40
2022-11-25T17:37:42.114Z,89.10
2022-11-25T17:40:09.358Z,88.30
2022-11-25T17:42:35.968Z,86.40
2022-11-25T17:45:02.574Z,86.50
2022-11-25T17:47:29.146Z,86.70
2022-11-25T17:49:55.822Z,87.00
2022-11-25T17:52:22.499Z,87.30
2022-11-25T17:54:49.153Z,85.30
2022-11-25T17:57:18.791Z,85.20
2022-11-25T17:59:45.392Z,83.70
2022-11-25T18:02:19.240Z,83.80
2022-11-25T18:04:46.367Z,83.20
2022-11-25T18:07:13.019Z,83.20
2022-11-25T18:09:39.719Z,83.60
2022-11-25T18:12:09.113Z,83.90
2022-11-25T18:14:37.031Z,84.20
2022-11-25T18:17:05.402Z,84.80
2022-11-25T18:19:33.701Z,85.30
2022-11-25T18:22:05.602Z,85.40
2022-11-25T18:24:32.213Z,85.50
2022-11-25T18:26:59.005Z,85.90
2022-11-25T18:29:26.240Z,86.30
2022-11-25T18:31:53.616Z,86.50
2022-11-25T18:34:20.238Z,86.40
2022-11-25T18:36:46.915Z,86.50
2022-11-25T18:39:13.975Z,86.50
2022-11-25T18:41:41.585Z,86.40
2022-11-25T18:44:16.380Z,86.70
2022-11-25T18:46:42.981Z,86.90
2022-11-25T18:49:13.553Z,86.90
2022-11-25T18:51:40.696Z,86.60
2022-11-25T18:54:08.022Z,86.50
2022-11-25T18:56:38.431Z,86.10
2022-11-25T18:59:06.254Z,86.20
2022-11-25T19:01:32.979Z,86.60
2022-11-25T19:04:00.090Z,86.90
2022-11-25T19:06:29.689Z,86.90
2022-11-25T19:08:56.356Z,87.10
2022-11-25T19:11:30.530Z,87.50
2022-11-25T19:14:00.798Z,88.20
2022-11-25T19:16:27.544Z,88.40
2022-11-25T19:18:54.225Z,88.20
2022-11-25T19:21:21.211Z,87.90
2022-11-25T19:23:48.055Z,88.30
2022-11-25T19:26:16.602Z,88.50
2022-11-25T19:28:44.927Z,88.90
2022-11-25T19:31:11.702Z,89.40
2022-11-25T19:33:39.820Z,89.50
2022-11-25T19:36:06.760Z,89.60
2022-11-25T19:38:34.696Z,89.60
2022-11-25T19:41:01.350Z,89.40
2022-11-25T19:43:28.020Z,88.70
2022-11-25T19:45:55.374Z,88.50
2022-11-25T19:48:22.467Z,88.80
2022-11-25T19:50:51.838Z,88.50
2022-11-25T19:53:19.785Z,88.50
2022-11-25T19:55:46.897Z,88.30
2022-11-25T19:58:14.195Z,88.20
2022-11-25T20:00:42.423Z,87.90
2022-11-25T20:03:23.356Z,87.80
2022-11-25T20:05:50.770Z,87.40
2022-11-25T20:08:18.643Z,87.20
2022-11-25T20:10:45.388Z,87.10
2022-11-25T20:13:12.000Z,87.10
2022-11-25T20:15:39.384Z,87.30
2022-11-25T20:18:06.036Z,87.10
2022-11-25T20:20:37.244Z,87.10
2022-11-25T20:23:24.090Z,86.90
2022-11-25T20:25:50.726Z,87.00
2022-11-25T20:28:19.326Z,87.30
2022-11-25T20:30:46.361Z,87.10
2022-11-25T20:33:13.351Z,87.10
2022-11-25T20:35:41.199Z,87.10
2022-11-25T20:38:13.411Z,86.90
2022-11-25T20:40:41.412Z,86.90
2022-11-25T20:43:11.808Z,86.90
2022-11-25T20:45:38.491Z,86.70
2022-11-25T20:48:10.262Z,86.40
2022-11-25T20:50:36.912Z,86.70
2022-11-25T20:53:03.624Z,86.30
2022-11-25T20:55:30.226Z,86.70
2022-11-25T20:57:56.813Z,87.20
2022-11-25T21:00:23.575Z,87.40
2022-11-25T21:02:50.957Z,87.00
2022-11-25T21:05:18.447Z,87.10
2022-11-25T21:07:45.655Z,87.10
2022-11-25T21:10:25.831Z,87.00
2022-11-25T21:12:52.674Z,87.00
2022-11-25T21:15:21.126Z,86.80
2022-11-25T21:17:47.820Z,87.00
2022-11-25T21:20:14.498Z,86.70
2022-11-25T21:22:43.300Z,86.80
2022-11-25T21:25:12.290Z,86.80
2022-11-25T21:27:39.199Z,87.00
2022-11-25T21:30:06.181Z,86.70
2022-11-25T21:32:32.789Z,87.10
2022-11-25T21:34:59.495Z,87.20
2022-11-25T21:37:29.664Z,87.80
2022-11-25T21:39:57.569Z,88.40
2022-11-25T21:42:24.439Z,88.40
2022-11-25T21:44:51.805Z,88.50
2022-11-25T21:47:19.782Z,88.90
2022-11-25T21:49:46.554Z,88.70
2022-11-25T21:52:13.413Z,89.10
2022-11-25T21:54:40.311Z,89.10
2022-11-25T21:57:13.804Z,89.20
2022-11-25T21:59:40.442Z,89.10
2022-11-25T22:02:20.900Z,89.30
2022-11-25T22:04:47.711Z,89.10
2022-11-25T22:07:14.410Z,89.10
2022-11-25T22:09:41.055Z,89.20
2022-11-25T22:12:15.023Z,89.50
2022-11-25T22:14:41.645Z,89.20
2022-11-25T22:17:13.076Z,89.00
2022-11-25T22:19:39.697Z,89.50
2022-11-25T22:22:16.178Z,89.20
2022-11-25T22:24:43.083Z,89.40
2022-11-25T22:27:21.315Z,89.80
2022-11-25T22:29:48.159Z,89.50
2022-11-25T22:32:15.320Z,89.70
2022-11-25T22:34:42.437Z,89.70
2022-11-25T22:37:20.107Z,89.70
2022-11-25T22:39:47.046Z,89.30
2022-11-25T22:42:24.385Z,89.00
2022-11-25T22:44:51.440Z,89.20
2022-11-25T22:47:21.109Z,89.00
2022-11-25T22:49:48.764Z,89.10
2022-11-25T22:52:22.692Z,88.70
2022-11-25T22:54:49.455Z,88.60
2022-11-25T22:57:16.468Z,88.30
2022-11-25T22:59:43.192Z,87.60
2022-11-25T23:02:19.797Z,86.70
2022-11-25T23:04:51.681Z,87.50
2022-11-25T23:07:19.264Z,87.00
2022-11-25T23:09:45.899Z,87.10
2022-11-25T23:12:12.815Z,86.70
2022-11-25T23:14:39.984Z,87.00
2022-11-25T23:17:17.514Z,86.90
2022-11-25T23:19:44.168Z,87.30
2022-11-25T23:22:11.275Z,87.50
2022-11-25T23:24:41.141Z,87.90
2022-11-25T23:27:07.736Z,87.40
2022-11-25T23:29:34.363Z,88.50
2022-11-25T23:32:02.854Z,88.00
2022-11-25T23:34:29.611Z,87.50
2022-11-25T23:36:56.653Z,87.60
2022-11-25T23:39:24.823Z,87.10
2022-11-25T23:41:51.476Z,87.10
2022-11-25T23:44:18.044Z,87.00
2022-11-25T23:46:44.844Z,86.50
2022-11-25T23:49:18.554Z,86.40
2022-11-25T23:51:45.203Z,86.50
2022-11-25T23:54:16.592Z,86.70
2022-11-25T23:56:43.277Z,87.00
2022-11-25T23:59:12.178Z,87.70
